createdAt,value
2023-05-21T04:04:11.917Z,14.07
2023-05-21T04:08:23.904Z,14.12
2023-05-21T04:12:35.888Z,14.12
2023-05-21T04:16:49.898Z,14.17
2023-05-21T04:21:02.389Z,14.23
2023-05-21T04:25:13.997Z,14.28
2023-05-21T04:29:27.209Z,14.26
2023-05-21T04:33:42.013Z,14.28
2023-05-21T04:37:54.933Z,14.29
2023-05-21T04:42:06.837Z,14.40
2023-05-21T04:46:18.486Z,14.42
2023-05-21T04:50:33.661Z,14.50
2023-05-21T04:54:45.797Z,14.53
2023-05-21T04:58:58.827Z,14.57
2023-05-21T05:03:11.322Z,14.70
2023-05-21T05:07:22.928Z,14.75
2023-05-21T05:11:34.596Z,14.87
2023-05-21T05:15:48.753Z,14.99
2023-05-21T05:20:01.574Z,14.94
2023-05-21T05:24:14.174Z,14.86
2023-05-21T05:28:26.112Z,15.03
2023-05-21T05:32:37.806Z,15.04
2023-05-21T05:36:49.533Z,15.01
2023-05-21T05:41:01.217Z,15.06
2023-05-21T05:45:13.902Z,15.20
2023-05-21T05:49:25.766Z,15.17
2023-05-21T05:53:37.789Z,15.30
2023-05-21T05:57:49.869Z,15.50
2023-05-21T06:02:03.398Z,15.81
2023-05-21T06:06:15.173Z,16.26
2023-05-21T06:10:26.885Z,16.64
2023-05-21T06:14:38.561Z,16.45
2023-05-21T06:18:50.285Z,16.50
2023-05-21T06:23:01.861Z,16.52
2023-05-21T06:27:13.491Z,16.49
2023-05-21T06:31:25.414Z,16.60
2023-05-21T06:35:39.180Z,16.52
2023-05-21T06:39:52.855Z,16.39
2023-05-21T06:44:05.353Z,16.40
2023-05-21T06:48:29.273Z,16.28
2023-05-21T06:52:41.192Z,16.42
2023-05-21T06:56:52.874Z,16.37
2023-05-21T07:01:04.564Z,16.48
2023-05-21T07:05:16.377Z,16.22
2023-05-21T07:09:27.938Z,16.32
2023-05-21T07:13:39.576Z,16.71
2023-05-21T07:17:51.446Z,16.92
2023-05-21T07:22:04.970Z,17.20
2023-05-21T07:26:17.796Z,17.42
2023-05-21T07:30:30.119Z,18.09
2023-05-21T07:34:42.635Z,18.52
2023-05-21T07:38:54.898Z,18.69
2023-05-21T07:43:07.193Z,18.79
2023-05-21T07:47:20.677Z,19.02
2023-05-21T07:51:32.320Z,19.18
2023-05-21T07:55:47.810Z,19.27
2023-05-21T08:00:01.896Z,19.30
2023-05-21T08:04:16.518Z,19.56
2023-05-21T08:08:28.192Z,19.34
2023-05-21T08:12:41.499Z,19.49
2023-05-21T08:16:53.598Z,19.81
2023-05-21T08:21:05.343Z,19.77
2023-05-21T08:25:17.136Z,20.02
2023-05-21T08:29:28.888Z,19.55
2023-05-21T08:33:50.364Z,19.54
2023-05-21T08:38:02.749Z,19.58
2023-05-21T08:42:37.576Z,19.45
2023-05-21T08:46:53.756Z,19.60
2023-05-21T08:51:05.793Z,19.46
2023-05-21T08:55:23.421Z,19.42
2023-05-21T08:59:36.907Z,19.39
2023-05-21T09:04:04.806Z,19.55
2023-05-21T09:08:29.568Z,19.87
2023-05-21T09:12:48.875Z,19.73
2023-05-21T09:17:01.330Z,19.69
2023-05-21T09:21:24.487Z,19.62
2023-05-21T09:25:39.126Z,19.97
2023-05-21T09:29:55.829Z,20.13
2023-05-21T09:34:07.563Z,20.20
2023-05-21T09:38:22.741Z,20.46
2023-05-21T09:42:34.621Z,20.77
2023-05-21T09:46:46.381Z,21.08
2023-05-21T09:51:11.473Z,21.25
2023-05-21T09:55:24.088Z,21.47
2023-05-21T09:59:37.224Z,21.45
2023-05-21T10:03:57.383Z,21.73
2023-05-21T10:08:10.152Z,21.41
2023-05-21T10:12:24.393Z,21.36
2023-05-21T10:16:37.693Z,21.48
2023-05-21T10:20:49.744Z,21.65
2023-05-21T10:25:03.641Z,21.88
2023-05-21T10:29:17.363Z,21.98
2023-05-21T10:33:31.782Z,21.93
2023-05-21T10:37:44.395Z,22.33
2023-05-21T10:42:31.123Z,22.56
2023-05-21T10:47:00.524Z,22.81
2023-05-21T10:51:21.116Z,23.19
2023-05-21T10:55:38.620Z,23.17
2023-05-21T10:59:50.738Z,23.20
2023-05-21T11:04:03.517Z,23.01
2023-05-21T11:08:22.577Z,22.61
2023-05-21T11:12:34.895Z,22.62
2023-05-21T11:16:46.799Z,22.24
2023-05-21T11:21:11.360Z,22.23
2023-05-21T11:25:22.957Z,22.19
2023-05-21T11:29:40.654Z,22.19
2023-05-21T11:34:14.309Z,22.25
2023-05-21T11:38:31.588Z,22.33
2023-05-21T11:42:48.423Z,22.23
2023-05-21T11:47:00.375Z,22.38
2023-05-21T11:51:11.990Z,22.37
2023-05-21T11:55:25.024Z,22.62
2023-05-21T11:59:36.988Z,22.82
2023-05-21T12:03:48.673Z,22.67
2023-05-21T12:08:00.330Z,22.99
2023-05-21T12:12:15.187Z,23.10
2023-05-21T12:16:26.979Z,23.14
2023-05-21T12:20:38.894Z,23.16
2023-05-21T12:24:51.188Z,23.22
2023-05-21T12:29:04.769Z,23.36
2023-05-21T12:33:17.984Z,23.63
2023-05-21T12:37:35.601Z,23.91
2023-05-21T12:41:47.223Z,23.96
2023-05-21T12:45:58.820Z,24.22
2023-05-21T12:50:13.998Z,24.27
2023-05-21T12:54:31.649Z,24.01
2023-05-21T12:58:43.281Z,23.86
2023-05-21T13:02:57.020Z,24.19
2023-05-21T13:07:08.726Z,24.38
2023-05-21T13:11:21.356Z,24.17
2023-05-21T13:15:32.955Z,23.82
2023-05-21T13:20:06.430Z,23.96
2023-05-21T13:24:18.026Z,23.98
2023-05-21T13:28:29.645Z,24.00
2023-05-21T13:32:42.378Z,23.89
2023-05-21T13:36:54.015Z,23.95
2023-05-21T13:41:05.961Z,23.96
2023-05-21T13:45:19.163Z,24.23
2023-05-21T13:49:31.294Z,24.30
2023-05-21T13:53:42.918Z,24.58
2023-05-21T13:57:54.464Z,24.72
2023-05-21T14:02:06.121Z,24.77
2023-05-21T14:06:17.715Z,24.79
2023-05-21T14:10:29.257Z,24.94
2023-05-21T14:14:41.393Z,25.05
2023-05-21T14:18:56.385Z,24.91
2023-05-21T14:23:09.338Z,25.22
2023-05-21T14:27:20.912Z,25.48
2023-05-21T14:31:32.469Z,25.36
2023-05-21T14:35:44.344Z,25.26
2023-05-21T14:39:56.005Z,24.99
2023-05-21T14:44:08.196Z,25.22
2023-05-21T14:48:23.092Z,25.43
2023-05-21T14:52:34.634Z,25.14
2023-05-21T14:56:46.181Z,25.19
2023-05-21T15:00:57.781Z,25.18
2023-05-21T15:05:09.480Z,25.04
2023-05-21T15:09:21.176Z,25.20
2023-05-21T15:13:32.888Z,25.51
2023-05-21T15:17:44.602Z,25.21
2023-05-21T15:21:56.188Z,25.12
2023-05-21T15:26:09.063Z,25.42
2023-05-21T15:30:22.329Z,25.28
2023-05-21T15:34:34.340Z,25.33
2023-05-21T15:38:46.222Z,25.46
2023-05-21T15:42:57.826Z,25.48
2023-05-21T15:47:09.426Z,25.57
2023-05-21T15:51:21.049Z,25.25
2023-05-21T15:55:33.432Z,25.24
2023-05-21T15:59:45.038Z,25.17
2023-05-21T16:03:56.731Z,24.92
2023-05-21T16:08:10.713Z,24.97
2023-05-21T16:12:22.302Z,24.98
2023-05-21T16:16:34.109Z,25.05
2023-05-21T16:20:45.701Z,24.92
2023-05-21T16:24:57.329Z,25.01
2023-05-21T16:29:08.968Z,25.02
2023-05-21T16:33:20.576Z,25.09
2023-05-21T16:37:32.247Z,25.08
2023-05-21T16:41:43.907Z,25.14
2023-05-21T16:45:55.553Z,25.10
2023-05-21T16:50:07.980Z,25.09
2023-05-21T16:54:19.540Z,25.17
2023-05-21T16:58:33.207Z,24.97
2023-05-21T17:02:44.923Z,24.95
2023-05-21T17:06:56.903Z,24.97
2023-05-21T17:11:08.812Z,24.83
2023-05-21T17:15:20.627Z,24.76
2023-05-21T17:19:32.332Z,24.78
2023-05-21T17:23:43.951Z,24.66
2023-05-21T17:27:55.652Z,24.51
2023-05-21T17:32:07.234Z,24.45
2023-05-21T17:36:18.805Z,24.25
2023-05-21T17:40:30.403Z,24.08
2023-05-21T17:44:42.005Z,24.15
2023-05-21T17:48:53.590Z,24.04
2023-05-21T17:53:05.320Z,23.92
2023-05-21T17:57:19.563Z,23.79
2023-05-21T18:01:31.347Z,23.65
2023-05-21T18:05:42.994Z,23.51
2023-05-21T18:09:54.523Z,23.38
2023-05-21T18:14:06.127Z,23.25
2023-05-21T18:18:20.685Z,23.11
2023-05-21T18:22:33.081Z,23.01
2023-05-21T18:26:45.672Z,22.87
2023-05-21T18:31:00.724Z,22.78
2023-05-21T18:35:13.768Z,22.64
2023-05-21T18:39:27.722Z,22.50
2023-05-21T18:43:41.373Z,22.34
2023-05-21T18:47:52.913Z,22.20
2023-05-21T18:52:07.815Z,22.00
2023-05-21T18:56:19.438Z,21.83
2023-05-21T19:00:31.033Z,21.72
2023-05-21T19:04:42.645Z,21.52
2023-05-21T19:08:54.461Z,21.33
2023-05-21T19:13:06.543Z,21.18
2023-05-21T19:17:18.152Z,21.05
2023-05-21T19:21:29.716Z,20.89
2023-05-21T19:25:41.525Z,20.76
2023-05-21T19:29:53.066Z,20.55
2023-05-21T19:34:10.258Z,20.43
2023-05-21T19:38:22.154Z,20.31
2023-05-21T19:42:33.684Z,20.21
2023-05-21T19:46:45.277Z,20.09
2023-05-21T19:50:57.055Z,19.95
2023-05-21T19:55:10.146Z,19.83
2023-05-21T19:59:21.934Z,19.70
2023-05-21T20:03:36.981Z,19.55
2023-05-21T20:07:48.545Z,19.45
2023-05-21T20:12:00.162Z,19.27
2023-05-21T20:16:12.529Z,19.25
2023-05-21T20:20:26.667Z,19.08
2023-05-21T20:24:38.261Z,18.98
2023-05-21T20:28:49.801Z,18.91
2023-05-21T20:33:02.810Z,18.76
2023-05-21T20:37:14.822Z,18.64
2023-05-21T20:41:28.170Z,18.55
2023-05-21T20:45:41.014Z,18.44
2023-05-21T20:49:53.622Z,18.37
2023-05-21T20:54:05.349Z,18.35
2023-05-21T20:58:16.904Z,18.29
2023-05-21T21:02:28.622Z,18.23
2023-05-21T21:06:40.780Z,18.17
2023-05-21T21:10:52.332Z,18.04
2023-05-21T21:15:04.193Z,18.01
2023-05-21T21:19:15.797Z,17.90
2023-05-21T21:23:30.456Z,17.90
2023-05-21T21:27:42.506Z,17.76
